createdAt,value
2024-01-15T00:00:30.326Z,8.32
2024-01-15T00:03:31.986Z,10.05
2024-01-15T00:06:34.628Z,7.60
2024-01-15T00:09:36.931Z,7.45
2024-01-15T00:12:38.663Z,7.25
2024-01-15T00:15:40.791Z,5.28
2024-01-15T00:18:42.563Z,7.10
2024-01-15T00:21:44.700Z,6.05
2024-01-15T00:24:46.266Z,7.55
2024-01-15T00:27:48.089Z,6.63
2024-01-15T00:30:49.911Z,5.43
2024-01-15T00:33:51.708Z,5.57
2024-01-15T00:36:53.399Z,4.15
2024-01-15T00:39:55.062Z,6.20
2024-01-15T00:42:56.712Z,4.15
2024-01-15T00:45:58.366Z,6.03
2024-01-15T00:49:00.120Z,5.15
2024-01-15T00:52:01.998Z,4.88
2024-01-15T00:55:03.770Z,9.52
2024-01-15T00:58:05.642Z,4.70
2024-01-15T01:01:07.298Z,4.65
2024-01-15T01:04:09.016Z,4.72
2024-01-15T01:07:10.759Z,5.07
2024-01-15T01:10:12.277Z,5.53
2024-01-15T01:13:13.880Z,5.57
2024-01-15T01:16:15.438Z,4.10
2024-01-15T01:19:17.939Z,4.50
2024-01-15T01:22:19.697Z,5.43
2024-01-15T01:25:21.365Z,5.13
2024-01-15T01:28:22.944Z,5.55
2024-01-15T01:31:25.237Z,5.05
2024-01-15T01:34:27.060Z,4.05
2024-01-15T01:37:28.748Z,4.90
2024-01-15T01:40:30.334Z,3.63
2024-01-15T01:43:31.966Z,4.35
2024-01-15T01:46:34.287Z,4.43
2024-01-15T01:49:37.073Z,4.50
2024-01-15T01:52:39.219Z,4.63
2024-01-15T01:55:41.458Z,5.28
2024-01-15T01:58:43.711Z,5.60
2024-01-15T02:01:45.690Z,4.63
2024-01-15T02:04:49.164Z,4.85
2024-01-15T02:07:50.864Z,4.15
2024-01-15T02:10:52.386Z,3.65
2024-01-15T02:13:54.046Z,3.25
2024-01-15T02:16:55.625Z,5.75
2024-01-15T02:19:57.293Z,4.43
2024-01-15T02:23:15.514Z,4.43
2024-01-15T02:26:17.250Z,4.25
2024-01-15T02:29:19.062Z,3.67
2024-01-15T02:32:20.616Z,3.80
2024-01-15T02:35:22.204Z,5.03
2024-01-15T02:38:23.817Z,4.13
2024-01-15T02:41:25.355Z,4.88
2024-01-15T02:44:26.930Z,3.38
2024-01-15T02:47:28.546Z,4.45
2024-01-15T02:50:30.148Z,3.70
2024-01-15T02:53:31.746Z,4.05
2024-01-15T02:56:33.323Z,4.07
2024-01-15T02:59:34.972Z,4.45
2024-01-15T03:02:40.706Z,5.70
2024-01-15T03:05:43.119Z,2.78
2024-01-15T03:08:44.710Z,3.58
2024-01-15T03:11:46.321Z,3.63
2024-01-15T03:14:47.960Z,2.70
2024-01-15T03:17:49.757Z,3.88
2024-01-15T03:20:51.562Z,3.50
2024-01-15T03:23:53.130Z,2.88
2024-01-15T03:26:54.766Z,4.15
2024-01-15T03:29:56.349Z,3.42
2024-01-15T03:32:57.972Z,2.75
2024-01-15T03:36:00.158Z,3.15
2024-01-15T03:39:01.824Z,2.70
2024-01-15T03:42:03.554Z,3.10
2024-01-15T03:45:05.754Z,3.05
2024-01-15T03:48:07.573Z,3.80
2024-01-15T03:51:09.407Z,3.45
2024-01-15T03:54:11.018Z,3.28
2024-01-15T03:57:12.698Z,2.38
2024-01-15T04:00:18.316Z,3.88
2024-01-15T04:03:20.063Z,3.87
2024-01-15T04:06:21.810Z,3.05
2024-01-15T04:09:23.822Z,4.13
2024-01-15T04:12:25.490Z,2.70
2024-01-15T04:15:27.175Z,2.45
2024-01-15T04:18:28.901Z,3.20
2024-01-15T04:21:30.709Z,3.63
2024-01-15T04:24:33.241Z,2.80
2024-01-15T04:27:34.904Z,3.90
2024-01-15T04:30:36.755Z,3.08
2024-01-15T04:33:38.472Z,2.70
2024-01-15T04:36:43.198Z,2.70
2024-01-15T04:39:44.894Z,2.17
2024-01-15T04:42:49.469Z,3.53
2024-01-15T04:45:51.310Z,2.00
2024-01-15T04:48:53.093Z,3.95
2024-01-15T04:51:54.844Z,3.50
2024-01-15T04:54:56.570Z,2.95
2024-01-15T04:57:58.218Z,2.95
2024-01-15T05:00:59.862Z,2.92
2024-01-15T05:04:01.853Z,2.60
2024-01-15T05:07:03.826Z,3.10
2024-01-15T05:10:06.186Z,3.28
2024-01-15T05:13:07.744Z,2.42
2024-01-15T05:16:09.375Z,3.42
2024-01-15T05:19:10.916Z,3.00
2024-01-15T05:22:12.632Z,3.65
2024-01-15T05:25:14.302Z,2.72
2024-01-15T05:28:16.284Z,3.13
2024-01-15T05:31:17.882Z,2.65
2024-01-15T05:34:19.648Z,2.70
2024-01-15T05:37:21.246Z,2.42
2024-01-15T05:40:22.975Z,3.50
2024-01-15T05:43:24.540Z,4.20
2024-01-15T05:46:26.122Z,2.95
2024-01-15T05:49:27.880Z,2.58
2024-01-15T05:52:29.593Z,2.22
2024-01-15T05:55:31.201Z,3.28
2024-01-15T05:58:32.771Z,2.83
2024-01-15T06:01:34.394Z,2.35
2024-01-15T06:04:36.057Z,2.45
2024-01-15T06:07:37.845Z,3.95
2024-01-15T06:10:39.518Z,2.47
2024-01-15T06:13:41.045Z,3.25
2024-01-15T06:16:42.683Z,2.95
2024-01-15T06:19:44.334Z,2.95
2024-01-15T06:22:45.986Z,3.00
2024-01-15T06:25:47.524Z,4.00
2024-01-15T06:28:49.364Z,4.35
2024-01-15T06:31:51.043Z,4.20
2024-01-15T06:34:52.756Z,4.53
2024-01-15T06:37:54.290Z,4.43
2024-01-15T06:40:55.977Z,4.22
2024-01-15T06:43:57.525Z,5.25
2024-01-15T06:47:03.444Z,2.35
2024-01-15T06:50:07.840Z,2.65
2024-01-15T06:53:09.577Z,3.63
2024-01-15T06:56:11.119Z,3.10
2024-01-15T06:59:13.278Z,6.15
2024-01-15T07:02:15.640Z,2.80
2024-01-15T07:05:18.386Z,5.60
2024-01-15T07:08:20.013Z,3.90
2024-01-15T07:11:21.654Z,2.42
2024-01-15T07:14:23.167Z,3.08
2024-01-15T07:17:24.759Z,4.38
2024-01-15T07:20:26.357Z,3.75
2024-01-15T07:23:31.509Z,3.88
2024-01-15T07:26:33.251Z,2.30
2024-01-15T07:29:37.131Z,3.47
2024-01-15T07:32:38.850Z,3.92
2024-01-15T07:35:40.482Z,2.45
2024-01-15T07:38:42.029Z,3.97
2024-01-15T07:41:43.742Z,5.43
2024-01-15T07:44:46.042Z,4.10
2024-01-15T07:47:47.747Z,2.78
2024-01-15T07:50:49.407Z,3.42
2024-01-15T07:53:51.802Z,2.58
2024-01-15T07:57:01.571Z,3.53
2024-01-15T08:00:06.270Z,3.97
2024-01-15T08:03:07.907Z,5.75
2024-01-15T08:06:11.046Z,2.20
2024-01-15T08:09:13.920Z,2.33
2024-01-15T08:12:18.643Z,2.67
2024-01-15T08:15:20.284Z,3.92
2024-01-15T08:18:22.937Z,1.98
2024-01-15T08:21:24.644Z,2.83
2024-01-15T08:24:26.392Z,2.10
2024-01-15T08:27:29.017Z,1.67
2024-01-15T08:30:30.813Z,4.30
2024-01-15T08:33:32.495Z,4.30
2024-01-15T08:36:36.536Z,3.15
2024-01-15T08:39:39.642Z,3.03
2024-01-15T08:42:41.413Z,2.17
2024-01-15T08:45:43.317Z,2.50
2024-01-15T08:48:44.982Z,2.75
2024-01-15T08:51:46.714Z,1.85
2024-01-15T08:54:48.570Z,2.58
2024-01-15T08:57:50.978Z,3.00
2024-01-15T09:00:53.212Z,1.65
2024-01-15T09:03:55.033Z,1.67
2024-01-15T09:06:56.783Z,2.85
2024-01-15T09:10:00.410Z,3.05
2024-01-15T09:13:02.324Z,3.38
2024-01-15T09:16:04.494Z,3.05
2024-01-15T09:19:06.448Z,2.65
2024-01-15T09:22:08.027Z,2.75
2024-01-15T09:25:10.952Z,4.40
2024-01-15T09:28:12.604Z,3.63
2024-01-15T09:31:14.290Z,3.55
2024-01-15T09:34:16.029Z,2.40
2024-01-15T09:37:31.663Z,3.45
2024-01-15T09:40:39.855Z,3.63
2024-01-15T09:43:41.561Z,3.17
2024-01-15T09:46:45.552Z,1.25
2024-01-15T09:49:47.230Z,4.68
2024-01-15T09:52:49.144Z,2.33
2024-01-15T09:55:54.305Z,2.67
2024-01-15T09:58:58.243Z,1.38
2024-01-15T10:02:01.354Z,2.22
2024-01-15T10:05:03.833Z,2.33
2024-01-15T10:08:05.858Z,4.15
2024-01-15T10:11:07.422Z,2.72
2024-01-15T10:14:15.861Z,2.30
2024-01-15T10:17:18.246Z,3.28
2024-01-15T10:20:19.885Z,3.83
2024-01-15T10:23:21.414Z,2.13
2024-01-15T10:26:27.142Z,2.20
2024-01-15T10:29:28.686Z,3.33
2024-01-15T10:32:30.361Z,4.07
2024-01-15T10:35:33.338Z,2.90
2024-01-15T10:38:34.904Z,3.28
2024-01-15T10:41:36.573Z,2.75
2024-01-15T10:44:38.340Z,2.17
2024-01-15T10:47:40.047Z,3.72
2024-01-15T10:50:41.881Z,1.90
2024-01-15T10:53:43.897Z,4.30
2024-01-15T10:56:47.740Z,2.72
2024-01-15T10:59:49.270Z,3.90
2024-01-15T11:02:52.056Z,3.22
2024-01-15T11:05:54.857Z,4.95
2024-01-15T11:08:56.987Z,5.88
2024-01-15T11:12:13.054Z,3.35
2024-01-15T11:15:21.887Z,4.38
2024-01-15T11:18:24.102Z,3.92
2024-01-15T11:21:31.061Z,3.63
2024-01-15T11:24:37.494Z,4.25
2024-01-15T11:27:45.274Z,3.47
2024-01-15T11:30:47.129Z,4.13
2024-01-15T11:33:52.345Z,5.50
2024-01-15T11:37:02.115Z,4.28
2024-01-15T11:40:05.243Z,4.05
2024-01-15T11:43:08.193Z,4.32
2024-01-15T11:46:15.833Z,6.22
2024-01-15T11:49:36.488Z,2.97
2024-01-15T11:52:40.077Z,5.50
2024-01-15T11:55:49.778Z,4.43
2024-01-15T11:58:52.490Z,2.90
2024-01-15T12:01:54.238Z,5.47
2024-01-15T12:04:56.390Z,3.72
2024-01-15T12:07:58.261Z,5.10
2024-01-15T12:10:59.949Z,5.47
2024-01-15T12:14:01.544Z,2.75
2024-01-15T12:17:05.823Z,2.85
2024-01-15T12:20:08.091Z,3.08
2024-01-15T12:23:11.083Z,4.97
2024-01-15T12:26:12.755Z,4.50
2024-01-15T12:29:14.362Z,6.68
2024-01-15T12:32:16.552Z,8.63
2024-01-15T12:35:18.267Z,9.00
2024-01-15T12:38:21.155Z,9.98
2024-01-15T12:41:23.850Z,11.05
2024-01-15T12:44:25.538Z,9.52
2024-01-15T12:47:27.312Z,9.15
2024-01-15T12:50:31.022Z,8.77
2024-01-15T12:53:32.558Z,9.18
2024-01-15T12:56:34.107Z,8.15
2024-01-15T12:59:35.689Z,6.85
2024-01-15T13:02:37.283Z,9.20
2024-01-15T13:05:40.353Z,8.88
2024-01-15T13:08:42.002Z,7.30
2024-01-15T13:11:46.848Z,7.43
2024-01-15T13:14:48.570Z,9.10
2024-01-15T13:17:50.271Z,7.05
2024-01-15T13:20:51.961Z,11.52
2024-01-15T13:23:53.630Z,7.43
2024-01-15T13:26:55.844Z,10.02
2024-01-15T13:29:57.555Z,8.13
2024-01-15T13:33:04.788Z,7.13
2024-01-15T13:36:11.506Z,7.07
2024-01-15T13:39:13.207Z,6.38
2024-01-15T13:42:15.841Z,5.60
2024-01-15T13:45:17.966Z,8.55
2024-01-15T13:48:19.728Z,7.32
2024-01-15T13:51:24.623Z,7.30
2024-01-15T13:54:38.021Z,8.05
2024-01-15T13:57:47.061Z,7.32
2024-01-15T14:00:49.681Z,7.78
2024-01-15T14:03:51.422Z,6.30
2024-01-15T14:06:53.004Z,6.38
2024-01-15T14:09:54.689Z,5.43
2024-01-15T14:12:56.330Z,5.00
2024-01-15T14:15:57.930Z,4.28
2024-01-15T14:18:59.771Z,6.22
2024-01-15T14:22:01.448Z,6.15
2024-01-15T14:25:03.184Z,5.65
2024-01-15T14:28:05.073Z,4.95
2024-01-15T14:31:06.832Z,5.68
2024-01-15T14:34:08.980Z,4.13
2024-01-15T14:37:11.007Z,5.35
2024-01-15T14:40:14.466Z,4.35
2024-01-15T14:43:16.988Z,4.40
2024-01-15T14:46:22.165Z,6.22
2024-01-15T14:49:24.001Z,3.50
2024-01-15T14:52:25.687Z,3.63
2024-01-15T14:55:27.398Z,4.40
2024-01-15T14:58:28.998Z,6.00
2024-01-15T15:01:31.294Z,4.82
2024-01-15T15:04:33.362Z,3.63
2024-01-15T15:07:37.362Z,4.07
2024-01-15T15:10:41.526Z,4.88
2024-01-15T15:13:45.859Z,4.85
2024-01-15T15:16:47.999Z,4.25
2024-01-15T15:19:49.908Z,4.85
2024-01-15T15:22:56.066Z,3.00
2024-01-15T15:26:00.653Z,4.57
2024-01-15T15:29:03.382Z,3.83
2024-01-15T15:32:05.595Z,4.03
2024-01-15T15:35:07.739Z,3.00
2024-01-15T15:38:09.441Z,2.92
2024-01-15T15:41:11.115Z,2.83
2024-01-15T15:44:17.764Z,4.65
2024-01-15T15:47:19.573Z,7.07
2024-01-15T15:50:21.572Z,3.85
2024-01-15T15:53:23.217Z,5.07
2024-01-15T15:56:26.868Z,2.47
2024-01-15T15:59:28.496Z,4.22
2024-01-15T16:02:32.406Z,3.58
2024-01-15T16:05:42.347Z,2.97
2024-01-15T16:08:51.951Z,4.65
2024-01-15T16:11:53.684Z,4.40
2024-01-15T16:14:55.334Z,3.90
2024-01-15T16:23:18.050Z,3.60
2024-01-15T16:23:35.929Z,2.88
2024-01-15T16:24:50.294Z,3.10
2024-01-15T16:27:54.172Z,3.15
2024-01-15T16:31:02.117Z,4.72
2024-01-15T16:34:05.657Z,5.00
2024-01-15T16:37:09.321Z,2.97
2024-01-15T16:40:11.570Z,3.22
2024-01-15T16:43:13.127Z,3.33
2024-01-15T16:46:15.566Z,2.75
2024-01-15T16:49:19.428Z,4.35
2024-01-15T16:52:21.257Z,3.35
2024-01-15T16:55:22.848Z,3.20
2024-01-15T16:58:24.966Z,5.15
2024-01-15T17:01:26.503Z,4.65
2024-01-15T17:04:28.273Z,7.25
2024-01-15T17:07:29.927Z,5.95
2024-01-15T17:10:32.202Z,5.07
2024-01-15T17:13:34.002Z,6.63
2024-01-15T17:16:35.763Z,10.45
2024-01-15T17:19:37.297Z,8.15
2024-01-15T17:22:39.020Z,8.25
2024-01-15T17:25:40.622Z,8.93
2024-01-15T17:28:42.226Z,7.40
2024-01-15T17:31:43.785Z,8.15
2024-01-15T17:34:45.415Z,5.43
2024-01-15T17:37:47.428Z,9.30
2024-01-15T17:40:49.208Z,8.65
2024-01-15T17:43:50.775Z,5.32
2024-01-15T17:46:52.371Z,5.63
2024-01-15T17:49:53.899Z,8.95
2024-01-15T17:52:55.520Z,4.97
2024-01-15T17:55:57.107Z,8.32
2024-01-15T17:58:58.808Z,5.85
2024-01-15T18:02:00.399Z,10.70
2024-01-15T18:05:02.157Z,5.65
2024-01-15T18:08:03.997Z,6.57
2024-01-15T18:11:05.770Z,6.10
2024-01-15T18:14:07.399Z,4.57
2024-01-15T18:17:09.090Z,7.20
2024-01-15T18:20:12.118Z,9.07
2024-01-15T18:23:13.919Z,4.57
2024-01-15T18:26:16.775Z,4.57
2024-01-15T18:29:19.940Z,4.32
2024-01-15T18:32:22.755Z,4.05
2024-01-15T18:35:25.361Z,6.88
2024-01-15T18:38:26.944Z,8.00
2024-01-15T18:41:29.393Z,4.68
2024-01-15T18:44:31.290Z,5.95
2024-01-15T18:47:32.958Z,5.15
2024-01-15T18:50:34.652Z,4.95
2024-01-15T18:53:36.820Z,4.88
2024-01-15T18:56:41.924Z,5.07
2024-01-15T18:59:46.685Z,3.65
2024-01-15T19:02:48.472Z,5.20
2024-01-15T19:05:50.319Z,3.78
2024-01-15T19:08:52.308Z,4.40
2024-01-15T19:11:53.939Z,4.30
2024-01-15T19:14:55.453Z,4.57
2024-01-15T19:17:57.217Z,5.00
2024-01-15T19:20:58.788Z,4.68
2024-01-15T19:24:00.417Z,6.47
2024-01-15T19:27:02.132Z,3.15
2024-01-15T19:30:04.057Z,3.88
2024-01-15T19:33:05.968Z,3.45
2024-01-15T19:36:08.161Z,4.65
2024-01-15T19:39:10.571Z,3.58
2024-01-15T19:42:12.234Z,3.45
2024-01-15T19:45:13.912Z,5.07
2024-01-15T19:48:18.638Z,3.35
2024-01-15T19:51:20.379Z,4.72
2024-01-15T19:54:21.973Z,4.07
2024-01-15T19:57:23.571Z,2.67
2024-01-15T20:00:25.598Z,3.58
2024-01-15T20:03:27.166Z,4.70
2024-01-15T20:06:28.957Z,6.63
2024-01-15T20:09:30.537Z,3.58
2024-01-15T20:12:32.147Z,4.32
2024-01-15T20:15:37.427Z,3.53
2024-01-15T20:18:42.824Z,4.32
2024-01-15T20:21:45.815Z,4.35
2024-01-15T20:24:47.476Z,7.05
2024-01-15T20:27:49.121Z,13.00
2024-01-15T20:30:50.955Z,10.30
2024-01-15T20:33:52.737Z,11.13
2024-01-15T20:36:54.451Z,10.40
2024-01-15T20:39:55.983Z,10.63
2024-01-15T20:42:57.598Z,11.40
2024-01-15T20:45:59.452Z,8.27
2024-01-15T20:49:01.303Z,6.57
2024-01-15T20:52:04.474Z,7.68
2024-01-15T20:55:07.847Z,6.15
2024-01-15T20:58:09.625Z,5.28
2024-01-15T21:01:11.373Z,4.90
2024-01-15T21:04:13.486Z,6.70
2024-01-15T21:07:15.089Z,6.55
2024-01-15T21:10:16.665Z,5.25
2024-01-15T21:13:18.906Z,4.45
2024-01-15T21:16:20.877Z,4.75
2024-01-15T21:19:22.670Z,6.55
2024-01-15T21:22:24.355Z,5.10
2024-01-15T21:25:26.299Z,6.18
2024-01-15T21:28:30.850Z,3.38
2024-01-15T21:31:37.751Z,3.85
2024-01-15T21:34:39.275Z,5.68
2024-01-15T21:37:41.361Z,4.50
2024-01-15T21:40:43.664Z,3.83
2024-01-15T21:43:45.319Z,3.40
2024-01-15T21:46:46.870Z,3.13
2024-01-15T21:49:48.451Z,5.00
2024-01-15T21:52:50.042Z,4.70
2024-01-15T21:55:51.613Z,6.32
2024-01-15T21:58:53.432Z,2.55
2024-01-15T22:01:56.698Z,5.43
2024-01-15T22:04:59.341Z,5.70
2024-01-15T22:08:01.133Z,4.30
2024-01-15T22:11:02.829Z,3.50
2024-01-15T22:14:05.543Z,4.97
2024-01-15T22:17:07.175Z,3.65
2024-01-15T22:20:10.269Z,2.88
2024-01-15T22:23:11.951Z,3.92
2024-01-15T22:26:14.635Z,4.25
2024-01-15T22:29:16.295Z,3.95
2024-01-15T22:32:18.681Z,2.95
2024-01-15T22:35:20.400Z,1.85
2024-01-15T22:38:23.155Z,3.50
2024-01-15T22:41:24.797Z,3.63
2024-01-15T22:44:26.567Z,4.55
2024-01-15T22:47:28.321Z,3.08
2024-01-15T22:50:30.212Z,2.75
2024-01-15T22:53:31.887Z,3.03
2024-01-15T22:56:33.536Z,2.90
2024-01-15T22:59:35.266Z,6.03
2024-01-15T23:02:36.929Z,2.78
2024-01-15T23:05:39.932Z,1.98
2024-01-15T23:08:41.615Z,3.65
2024-01-15T23:11:47.823Z,2.47
2024-01-15T23:14:49.551Z,2.50
2024-01-15T23:17:52.360Z,1.95
2024-01-15T23:20:54.247Z,2.63
2024-01-15T23:23:55.837Z,2.45
2024-01-15T23:26:57.448Z,2.75
2024-01-15T23:29:59.075Z,2.78
2024-01-15T23:33:01.207Z,2.95
2024-01-15T23:36:04.005Z,2.70
2024-01-15T23:39:08.886Z,2.22
2024-01-15T23:42:13.328Z,2.92
2024-01-15T23:45:17.179Z,2.90
2024-01-15T23:48:18.770Z,3.70
2024-01-15T23:51:20.578Z,1.58
2024-01-15T23:54:22.207Z,1.70
2024-01-15T23:57:24.260Z,1.77
